createdAt,value
2018-07-25T00:00:22.521Z,23.00
2018-07-25T00:02:51.210Z,23.00
2018-07-25T00:05:19.853Z,23.00
2018-07-25T00:07:48.383Z,23.00
2018-07-25T00:12:45.398Z,22.90
2018-07-25T00:15:13.908Z,22.90
2018-07-25T00:17:42.662Z,22.90
2018-07-25T00:20:11.453Z,22.80
2018-07-25T00:22:40.054Z,22.80
2018-07-25T00:25:08.660Z,22.70
2018-07-25T00:27:37.187Z,22.70
2018-07-25T00:30:06.093Z,22.60
2018-07-25T00:32:34.749Z,22.50
2018-07-25T00:35:03.382Z,22.50
2018-07-25T00:37:32.077Z,22.40
2018-07-25T00:40:00.817Z,22.40
2018-07-25T00:42:29.386Z,22.40
2018-07-25T00:44:58.091Z,22.30
2018-07-25T00:47:26.814Z,22.30
2018-07-25T00:49:55.483Z,22.20
2018-07-25T00:52:24.221Z,22.10
2018-07-25T00:54:52.997Z,22.10
2018-07-25T00:57:22.525Z,21.90
2018-07-25T00:59:51.081Z,21.80
2018-07-25T01:07:16.604Z,21.80
2018-07-25T01:09:45.475Z,21.80
2018-07-25T01:12:14.086Z,21.90
2018-07-25T01:14:42.885Z,21.90
2018-07-25T01:17:11.811Z,21.80
2018-07-25T01:19:40.632Z,21.70
2018-07-25T01:22:09.900Z,21.70
2018-07-25T01:24:38.495Z,21.70
2018-07-25T01:27:07.505Z,21.60
2018-07-25T01:29:36.125Z,21.60
2018-07-25T01:32:04.916Z,21.50
2018-07-25T01:34:34.358Z,21.50
2018-07-25T01:37:02.995Z,21.40
2018-07-25T01:39:31.753Z,21.40
2018-07-25T01:42:00.553Z,21.50
2018-07-25T01:44:29.175Z,21.40
2018-07-25T01:46:57.854Z,21.40
2018-07-25T01:49:26.651Z,21.40
2018-07-25T01:51:55.376Z,21.40
2018-07-25T01:54:23.934Z,21.40
2018-07-25T01:56:52.584Z,21.40
2018-07-25T01:59:21.252Z,21.40
2018-07-25T02:01:50.546Z,21.40
2018-07-25T02:04:19.184Z,21.40
2018-07-25T02:06:48.431Z,21.20
2018-07-25T02:09:17.209Z,21.00
2018-07-25T02:11:45.922Z,21.00
2018-07-25T02:14:14.565Z,21.00
2018-07-25T02:16:43.221Z,21.00
2018-07-25T02:19:12.667Z,20.90
2018-07-25T02:21:41.878Z,20.80
2018-07-25T02:24:10.688Z,20.70
2018-07-25T02:26:39.361Z,20.60
2018-07-25T02:29:08.251Z,20.60
2018-07-25T02:31:36.805Z,20.70
2018-07-25T02:34:10.755Z,20.70
2018-07-25T02:36:39.386Z,20.80
2018-07-25T02:39:11.564Z,20.70
2018-07-25T02:41:40.437Z,20.80
2018-07-25T02:44:09.377Z,20.80
2018-07-25T02:46:38.154Z,20.60
2018-07-25T02:49:06.691Z,20.50
2018-07-25T02:51:35.401Z,20.50
2018-07-25T02:54:04.459Z,20.60
2018-07-25T02:56:33.637Z,20.60
2018-07-25T02:59:03.650Z,20.60
2018-07-25T03:01:32.336Z,20.60
2018-07-25T03:04:01.456Z,20.60
2018-07-25T03:06:30.464Z,20.60
2018-07-25T03:08:59.149Z,20.60
2018-07-25T03:11:27.765Z,20.50
2018-07-25T03:13:56.614Z,20.50
2018-07-25T03:16:25.196Z,20.40
2018-07-25T03:18:53.997Z,20.30
2018-07-25T03:21:22.904Z,20.30
2018-07-25T03:23:51.642Z,20.30
2018-07-25T03:26:20.393Z,20.30
2018-07-25T03:28:48.922Z,20.20
2018-07-25T03:31:17.549Z,20.30
2018-07-25T03:33:46.076Z,20.20
2018-07-25T03:36:14.868Z,20.20
2018-07-25T03:38:43.531Z,20.20
2018-07-25T03:41:12.327Z,20.20
2018-07-25T03:43:40.931Z,20.20
2018-07-25T03:46:10.246Z,20.20
2018-07-25T03:48:38.850Z,20.30
2018-07-25T03:51:07.366Z,20.30
2018-07-25T03:53:36.041Z,20.30
2018-07-25T03:56:05.124Z,20.30
2018-07-25T03:58:34.452Z,20.30
2018-07-25T04:01:03.105Z,20.30
2018-07-25T04:03:31.669Z,20.40
2018-07-25T04:06:00.427Z,20.30
2018-07-25T04:08:29.041Z,20.20
2018-07-25T04:10:57.655Z,20.20
2018-07-25T04:13:26.238Z,20.20
2018-07-25T04:15:54.925Z,20.10
2018-07-25T04:18:23.609Z,20.20
2018-07-25T04:20:52.321Z,20.10
2018-07-25T04:23:20.892Z,20.10
2018-07-25T04:25:49.720Z,20.10
2018-07-25T04:28:18.520Z,20.20
2018-07-25T04:30:47.148Z,20.20
2018-07-25T04:33:15.845Z,20.20
2018-07-25T04:38:12.695Z,20.10
2018-07-25T04:40:41.361Z,20.20
2018-07-25T04:43:10.740Z,20.30
2018-07-25T04:45:39.803Z,20.30
2018-07-25T04:48:08.684Z,20.30
2018-07-25T04:50:37.352Z,20.40
2018-07-25T04:55:34.664Z,20.50
2018-07-25T04:58:03.360Z,20.60
2018-07-25T05:00:31.984Z,20.60
2018-07-25T05:07:58.742Z,20.70
2018-07-25T05:10:27.440Z,20.80
2018-07-25T05:12:56.126Z,20.80
2018-07-25T05:15:24.808Z,20.90
2018-07-25T05:17:53.521Z,20.90
2018-07-25T05:20:22.122Z,20.90
2018-07-25T05:22:50.804Z,20.90
2018-07-25T05:25:19.449Z,21.00
2018-07-25T05:30:16.827Z,20.90
2018-07-25T05:32:45.562Z,20.90
2018-07-25T05:35:14.209Z,21.00
2018-07-25T05:37:42.829Z,21.10
2018-07-25T05:40:11.620Z,21.20
2018-07-25T05:42:40.377Z,21.30
2018-07-25T05:45:09.063Z,21.40
2018-07-25T05:47:37.781Z,21.60
2018-07-25T05:50:07.068Z,21.80
2018-07-25T05:52:35.893Z,21.90
2018-07-25T05:55:05.037Z,22.00
2018-07-25T05:57:34.178Z,22.10
2018-07-25T06:00:03.094Z,22.20
2018-07-25T06:02:31.772Z,22.20
2018-07-25T06:05:00.782Z,22.30
2018-07-25T06:07:30.256Z,22.30
2018-07-25T06:12:27.211Z,22.60
2018-07-25T06:14:55.885Z,22.70
2018-07-25T06:17:24.670Z,22.80
2018-07-25T06:19:53.388Z,23.00
2018-07-25T06:22:22.329Z,23.10
2018-07-25T06:24:51.192Z,23.20
2018-07-25T06:27:19.908Z,23.30
2018-07-25T06:29:48.461Z,23.50
2018-07-25T06:32:17.130Z,23.70
2018-07-25T06:34:45.815Z,24.10
2018-07-25T06:37:14.378Z,24.60
2018-07-25T06:39:43.669Z,25.10
2018-07-25T06:42:12.345Z,25.40
2018-07-25T06:44:40.955Z,25.90
2018-07-25T06:47:09.661Z,26.40
2018-07-25T06:49:38.275Z,26.70
2018-07-25T06:52:07.162Z,27.00
2018-07-25T06:54:35.864Z,27.20
2018-07-25T06:57:04.694Z,27.40
2018-07-25T06:59:33.321Z,27.60
2018-07-25T07:02:01.969Z,27.60
2018-07-25T07:04:30.705Z,27.40
2018-07-25T07:06:59.629Z,27.30
2018-07-25T07:09:28.575Z,27.40
2018-07-25T07:11:57.328Z,27.30
2018-07-25T07:14:25.907Z,27.30
2018-07-25T07:16:54.506Z,27.20
2018-07-25T07:19:23.297Z,27.30
2018-07-25T07:21:51.907Z,27.20
2018-07-25T07:24:20.736Z,27.30
2018-07-25T07:26:49.349Z,27.20
2018-07-25T07:29:18.149Z,27.40
2018-07-25T07:31:46.723Z,27.40
2018-07-25T07:34:15.557Z,27.50
2018-07-25T07:36:45.118Z,27.50
2018-07-25T07:39:14.464Z,27.40
2018-07-25T07:41:43.583Z,27.30
2018-07-25T07:44:12.367Z,27.20
2018-07-25T07:46:41.180Z,27.30
2018-07-25T07:49:10.839Z,27.30
2018-07-25T07:51:39.493Z,27.20
2018-07-25T07:54:09.601Z,27.00
2018-07-25T07:56:38.643Z,26.90
2018-07-25T07:59:07.262Z,26.80
2018-07-25T08:01:36.007Z,26.70
2018-07-25T08:04:04.710Z,26.50
2018-07-25T08:06:34.112Z,26.30
2018-07-25T08:09:03.015Z,26.30
2018-07-25T08:11:31.586Z,26.30
2018-07-25T08:14:00.375Z,26.30
2018-07-25T08:16:29.060Z,26.30
2018-07-25T08:18:58.944Z,26.50
2018-07-25T08:21:29.459Z,26.60
2018-07-25T08:23:59.061Z,26.80
2018-07-25T08:26:27.673Z,27.00
2018-07-25T08:28:56.769Z,27.00
2018-07-25T08:31:25.735Z,27.20
2018-07-25T08:33:55.472Z,27.40
2018-07-25T08:36:24.021Z,27.40
2018-07-25T08:38:52.769Z,27.60
2018-07-25T08:41:21.549Z,27.70
2018-07-25T08:43:51.224Z,27.70
2018-07-25T08:46:20.368Z,27.70
2018-07-25T08:48:49.926Z,27.60
2018-07-25T08:51:18.416Z,27.70
2018-07-25T08:53:47.040Z,27.90
2018-07-25T08:56:16.965Z,27.90
2018-07-25T08:58:47.442Z,27.90
2018-07-25T09:01:17.142Z,27.70
2018-07-25T09:03:46.239Z,27.70
2018-07-25T09:06:15.083Z,27.70
2018-07-25T09:11:13.824Z,28.10
2018-07-25T09:13:42.412Z,28.20
2018-07-25T09:16:11.852Z,28.40
2018-07-25T09:18:40.491Z,28.40
2018-07-25T09:21:09.063Z,28.40
2018-07-25T09:23:37.557Z,28.50
2018-07-25T09:26:06.414Z,28.50
2018-07-25T09:28:35.002Z,28.60
2018-07-25T09:31:03.708Z,28.50
2018-07-25T09:33:32.311Z,28.60
2018-07-25T09:36:00.879Z,28.60
2018-07-25T09:38:29.740Z,28.60
2018-07-25T09:40:58.311Z,28.70
2018-07-25T09:43:27.157Z,28.90
2018-07-25T09:45:55.864Z,28.90
2018-07-25T09:48:24.697Z,29.00
2018-07-25T09:50:53.440Z,29.00
2018-07-25T09:53:22.438Z,29.10
2018-07-25T09:55:51.060Z,28.90
2018-07-25T09:58:20.732Z,29.00
2018-07-25T10:00:51.512Z,29.10
2018-07-25T10:03:20.590Z,29.10
2018-07-25T10:05:49.432Z,29.00
2018-07-25T10:08:18.766Z,28.90
2018-07-25T10:10:47.481Z,29.00
2018-07-25T10:13:16.120Z,29.00
2018-07-25T10:15:44.854Z,29.00
2018-07-25T10:18:13.598Z,29.10
2018-07-25T10:20:42.328Z,29.20
2018-07-25T10:23:11.041Z,29.20
2018-07-25T10:25:41.040Z,29.40
2018-07-25T10:28:09.845Z,29.60
2018-07-25T10:30:38.678Z,29.80
2018-07-25T10:35:36.394Z,30.10
2018-07-25T10:38:05.424Z,30.10
2018-07-25T10:40:34.244Z,30.20
2018-07-25T10:43:02.832Z,30.30
2018-07-25T10:45:31.527Z,30.40
2018-07-25T10:48:00.152Z,30.50
2018-07-25T10:50:28.692Z,30.60
2018-07-25T10:52:57.188Z,30.80
2018-07-25T10:55:25.798Z,30.90
2018-07-25T10:57:54.647Z,30.90
2018-07-25T11:00:23.128Z,31.00
2018-07-25T11:02:51.745Z,31.10
2018-07-25T11:05:20.494Z,30.90
2018-07-25T11:07:49.212Z,30.80
2018-07-25T11:10:18.015Z,30.80
2018-07-25T11:12:46.516Z,31.00
2018-07-25T11:15:15.077Z,31.10
2018-07-25T11:17:43.674Z,30.90
2018-07-25T11:20:13.193Z,30.90
2018-07-25T11:22:42.703Z,31.00
2018-07-25T11:25:11.775Z,31.20
2018-07-25T11:27:40.741Z,31.10
2018-07-25T11:30:09.608Z,31.20
2018-07-25T11:32:38.276Z,31.30
2018-07-25T11:35:06.906Z,31.40
2018-07-25T11:37:35.470Z,31.50
2018-07-25T11:40:05.836Z,31.60
2018-07-25T11:42:34.636Z,31.60
2018-07-25T11:45:03.318Z,31.60
2018-07-25T11:47:32.847Z,31.80
2018-07-25T11:50:01.447Z,31.70
2018-07-25T11:52:30.101Z,31.70
2018-07-25T11:54:59.012Z,31.80
2018-07-25T11:57:27.721Z,31.90
2018-07-25T11:59:56.317Z,31.90
2018-07-25T12:02:25.356Z,32.00
2018-07-25T12:04:53.884Z,32.30
2018-07-25T12:07:22.598Z,32.30
2018-07-25T12:09:51.211Z,32.30
2018-07-25T12:12:19.814Z,32.20
2018-07-25T12:14:48.417Z,32.10
2018-07-25T12:17:17.011Z,31.90
2018-07-25T12:19:45.576Z,31.60
2018-07-25T12:22:15.172Z,31.60
2018-07-25T12:24:43.798Z,31.60
2018-07-25T12:27:12.437Z,31.60
2018-07-25T12:29:41.192Z,31.60
2018-07-25T12:32:09.756Z,31.60
2018-07-25T12:34:38.438Z,31.60
2018-07-25T12:37:07.122Z,31.70
2018-07-25T12:39:35.682Z,31.90
2018-07-25T12:42:04.399Z,32.00
2018-07-25T12:44:33.069Z,32.30
2018-07-25T12:47:02.019Z,32.30
2018-07-25T12:49:30.855Z,32.40
2018-07-25T12:51:59.704Z,32.40
2018-07-25T12:54:28.311Z,32.60
2018-07-25T12:56:57.064Z,32.70
2018-07-25T12:59:26.581Z,32.70
2018-07-25T13:01:55.209Z,32.80
2018-07-25T13:04:23.898Z,33.00
2018-07-25T13:06:52.918Z,33.10
2018-07-25T13:09:21.821Z,33.30
2018-07-25T13:11:50.408Z,33.40
2018-07-25T13:14:19.011Z,32.90
2018-07-25T13:16:47.578Z,32.90
2018-07-25T13:19:16.346Z,33.00
2018-07-25T13:21:44.985Z,33.00
2018-07-25T13:24:14.040Z,33.10
2018-07-25T13:26:42.625Z,33.10
2018-07-25T13:29:11.482Z,33.10
2018-07-25T13:31:40.220Z,33.20
2018-07-25T13:34:09.209Z,33.10
2018-07-25T13:36:38.184Z,33.00
2018-07-25T13:39:08.635Z,32.90
2018-07-25T13:41:37.253Z,33.00
2018-07-25T13:44:06.132Z,33.10
2018-07-25T13:46:34.840Z,33.20
2018-07-25T13:49:03.697Z,33.30
2018-07-25T13:51:32.540Z,33.40
2018-07-25T13:54:01.426Z,33.50
2018-07-25T13:56:30.155Z,33.40
2018-07-25T13:58:58.768Z,33.20
2018-07-25T14:01:27.372Z,33.00
2018-07-25T14:03:55.964Z,33.10
2018-07-25T14:06:24.872Z,33.20
2018-07-25T14:08:53.589Z,33.20
2018-07-25T14:11:22.401Z,33.20
2018-07-25T14:13:51.071Z,33.20
2018-07-25T14:16:19.970Z,33.40
2018-07-25T14:18:48.808Z,33.40
2018-07-25T14:21:17.664Z,33.30
2018-07-25T14:23:46.358Z,33.30
2018-07-25T14:26:14.886Z,33.30
2018-07-25T14:28:43.459Z,33.50
2018-07-25T14:31:11.972Z,33.50
2018-07-25T14:33:40.576Z,33.60
2018-07-25T14:36:09.189Z,33.50
2018-07-25T14:38:37.762Z,33.70
2018-07-25T14:41:06.740Z,33.80
2018-07-25T14:43:35.320Z,33.80
2018-07-25T14:46:03.872Z,33.90
2018-07-25T14:48:32.370Z,34.10
2018-07-25T14:51:01.086Z,34.00
2018-07-25T14:53:29.793Z,33.90
2018-07-25T14:55:58.290Z,33.80
2018-07-25T14:58:26.836Z,33.90
2018-07-25T15:00:55.729Z,33.90
2018-07-25T15:03:24.384Z,33.90
2018-07-25T15:05:52.996Z,33.70
2018-07-25T15:08:21.621Z,33.70
2018-07-25T15:10:50.232Z,33.70
2018-07-25T15:13:18.824Z,33.50
2018-07-25T15:15:48.454Z,33.50
2018-07-25T15:18:17.085Z,33.50
2018-07-25T15:20:45.653Z,32.90
2018-07-25T15:23:20.380Z,32.70
2018-07-25T15:25:49.135Z,32.90
2018-07-25T15:28:17.893Z,33.10
2018-07-25T15:30:46.546Z,32.90
2018-07-25T15:35:44.702Z,32.90
2018-07-25T15:38:13.295Z,32.90
2018-07-25T15:40:41.885Z,33.00
2018-07-25T15:43:10.410Z,33.20
2018-07-25T15:45:39.016Z,33.30
2018-07-25T15:48:07.634Z,33.40
2018-07-25T15:50:36.149Z,33.50
2018-07-25T15:53:04.685Z,33.50
2018-07-25T15:55:33.458Z,33.50
2018-07-25T15:58:02.172Z,33.50
2018-07-25T16:00:30.805Z,33.50
2018-07-25T16:02:59.415Z,33.60
2018-07-25T16:05:27.965Z,33.70
2018-07-25T16:07:56.612Z,33.80
2018-07-25T16:10:25.172Z,33.70
2018-07-25T16:12:54.011Z,33.60
2018-07-25T16:15:22.789Z,33.70
2018-07-25T16:20:19.519Z,33.50
2018-07-25T16:22:48.904Z,33.70
2018-07-25T16:25:17.397Z,33.70
2018-07-25T16:30:14.380Z,33.70
2018-07-25T16:32:43.175Z,33.60
2018-07-25T16:35:11.799Z,33.60
2018-07-25T16:37:40.671Z,33.50
2018-07-25T16:40:09.284Z,33.50
2018-07-25T16:42:37.828Z,33.50
2018-07-25T16:45:06.484Z,33.50
2018-07-25T16:47:35.069Z,33.70
2018-07-25T16:50:03.694Z,33.70
2018-07-25T16:52:33.108Z,33.60
2018-07-25T16:55:01.671Z,33.70
2018-07-25T16:57:30.274Z,33.80
2018-07-25T16:59:58.822Z,33.70
2018-07-25T17:02:27.341Z,33.70
2018-07-25T17:04:55.869Z,33.80
2018-07-25T17:07:24.385Z,33.80
2018-07-25T17:09:52.926Z,33.80
2018-07-25T17:12:23.458Z,34.00
2018-07-25T17:14:52.048Z,33.90
2018-07-25T17:17:20.629Z,33.80
2018-07-25T17:19:49.280Z,33.80
2018-07-25T17:22:17.868Z,33.80
2018-07-25T17:24:46.453Z,33.60
2018-07-25T17:27:14.999Z,33.60
2018-07-25T17:29:43.600Z,33.40
2018-07-25T17:32:12.454Z,33.30
2018-07-25T17:34:40.982Z,33.20
2018-07-25T17:37:09.759Z,33.00
2018-07-25T17:39:38.476Z,32.90
2018-07-25T17:42:07.111Z,32.70
2018-07-25T17:44:35.828Z,32.50
2018-07-25T17:47:04.701Z,32.20
2018-07-25T17:49:33.609Z,32.10
2018-07-25T17:52:02.365Z,31.80
2018-07-25T17:54:31.968Z,31.80
2018-07-25T17:57:00.615Z,31.50
2018-07-25T17:59:29.397Z,31.00
2018-07-25T18:01:57.926Z,30.60
2018-07-25T18:04:26.779Z,30.40
2018-07-25T18:06:55.496Z,30.10
2018-07-25T18:09:24.081Z,29.80
2018-07-25T18:11:52.800Z,29.50
2018-07-25T18:14:21.516Z,29.00
2018-07-25T18:16:50.762Z,28.50
2018-07-25T18:19:19.616Z,28.00
2018-07-25T18:21:48.380Z,27.60
2018-07-25T18:24:17.097Z,27.30
2018-07-25T18:26:45.848Z,27.00
2018-07-25T18:29:14.556Z,26.90
2018-07-25T18:31:43.090Z,26.60
2018-07-25T18:34:11.778Z,26.40
2018-07-25T18:36:40.384Z,26.40
2018-07-25T18:39:10.421Z,26.30
2018-07-25T18:41:39.624Z,26.20
2018-07-25T18:44:08.863Z,26.20
2018-07-25T18:46:37.496Z,26.20
2018-07-25T18:49:07.127Z,26.10
2018-07-25T18:54:04.218Z,26.00
2018-07-25T18:56:33.370Z,26.00
2018-07-25T18:59:02.019Z,26.10
2018-07-25T19:01:30.727Z,26.10
2018-07-25T19:04:00.302Z,26.10
2018-07-25T19:06:29.000Z,26.10
2018-07-25T19:08:57.876Z,26.00
2018-07-25T19:11:26.688Z,25.90
2018-07-25T19:14:01.096Z,25.60
2018-07-25T19:16:29.764Z,25.60
2018-07-25T19:18:58.529Z,25.60
2018-07-25T19:21:27.361Z,25.70
2018-07-25T19:23:56.399Z,25.70
2018-07-25T19:26:24.928Z,25.40
2018-07-25T19:28:53.569Z,25.30
2018-07-25T19:31:22.787Z,25.40
2018-07-25T19:33:51.305Z,25.50
2018-07-25T19:36:19.811Z,25.50
2018-07-25T19:41:17.120Z,25.50
2018-07-25T19:43:45.720Z,25.30
2018-07-25T19:46:14.482Z,25.30
2018-07-25T19:48:43.006Z,25.30
2018-07-25T19:51:11.589Z,25.30
2018-07-25T19:53:40.235Z,25.40
2018-07-25T19:56:08.884Z,25.50
2018-07-25T19:58:37.384Z,25.60
2018-07-25T20:01:06.845Z,25.50
2018-07-25T20:03:35.440Z,25.40
2018-07-25T20:06:04.142Z,25.40
2018-07-25T20:08:32.845Z,25.30
2018-07-25T20:11:01.428Z,25.30
2018-07-25T20:13:32.309Z,25.20
2018-07-25T20:16:02.277Z,25.20
2018-07-25T20:18:31.237Z,25.20
2018-07-25T20:20:59.999Z,25.10
2018-07-25T20:23:28.812Z,25.10
2018-07-25T20:25:57.491Z,25.00
2018-07-25T20:28:26.133Z,24.90
2018-07-25T20:30:54.782Z,24.70
2018-07-25T20:35:51.790Z,24.70
2018-07-25T20:38:20.351Z,24.70
2018-07-25T20:40:49.052Z,24.70
2018-07-25T20:43:17.816Z,24.70
2018-07-25T20:45:46.528Z,24.70
2018-07-25T20:48:15.436Z,24.60
2018-07-25T20:50:44.214Z,24.60
2018-07-25T20:53:13.408Z,24.60
2018-07-25T20:55:42.021Z,24.50
2018-07-25T20:58:10.733Z,24.50
2018-07-25T21:00:39.387Z,24.50
2018-07-25T21:03:08.084Z,24.50
2018-07-25T21:05:36.927Z,24.40
2018-07-25T21:08:05.541Z,24.40
2018-07-25T21:10:34.190Z,24.40
2018-07-25T21:13:02.766Z,24.50
2018-07-25T21:15:31.422Z,24.30
2018-07-25T21:18:00.073Z,24.20
2018-07-25T21:20:28.651Z,24.10
2018-07-25T21:22:57.428Z,24.00
2018-07-25T21:25:26.002Z,23.90
2018-07-25T21:27:54.637Z,23.90
2018-07-25T21:30:23.437Z,23.80
2018-07-25T21:32:52.109Z,23.80
2018-07-25T21:35:20.651Z,23.60
2018-07-25T21:37:50.032Z,23.50
2018-07-25T21:40:18.679Z,23.40
2018-07-25T21:42:47.610Z,23.50
2018-07-25T21:45:16.303Z,23.50
2018-07-25T21:47:44.932Z,23.50
2018-07-25T21:50:13.496Z,23.40
2018-07-25T21:52:42.260Z,23.40
2018-07-25T21:55:10.869Z,23.40
2018-07-25T21:57:39.366Z,23.40
2018-07-25T22:00:13.640Z,23.40
2018-07-25T22:02:42.837Z,23.40
2018-07-25T22:05:12.072Z,23.40
2018-07-25T22:07:40.696Z,23.40
2018-07-25T22:10:09.765Z,23.40
2018-07-25T22:12:39.181Z,23.40
2018-07-25T22:15:10.197Z,23.40
2018-07-25T22:17:39.249Z,23.50
2018-07-25T22:20:10.721Z,23.50
2018-07-25T22:22:39.379Z,23.40
2018-07-25T22:25:08.965Z,23.40
2018-07-25T22:27:38.103Z,23.40
2018-07-25T22:30:07.281Z,23.40
2018-07-25T22:32:35.825Z,23.40
2018-07-25T22:35:04.450Z,23.40
2018-07-25T22:37:33.211Z,23.30
2018-07-25T22:40:01.928Z,23.20
2018-07-25T22:44:59.016Z,23.20
2018-07-25T22:47:27.658Z,23.00
2018-07-25T22:52:24.635Z,22.90
2018-07-25T22:54:53.337Z,22.90
2018-07-25T22:57:21.851Z,22.90
2018-07-25T22:59:50.430Z,23.00
2018-07-25T23:02:19.082Z,23.00
2018-07-25T23:04:47.708Z,23.00
2018-07-25T23:07:16.477Z,22.90
2018-07-25T23:09:45.040Z,22.90
2018-07-25T23:12:13.811Z,23.00
2018-07-25T23:14:42.495Z,23.00
2018-07-25T23:17:11.169Z,22.90
2018-07-25T23:19:39.776Z,22.80
2018-07-25T23:22:08.409Z,22.70
2018-07-25T23:24:37.394Z,22.70
2018-07-25T23:27:06.112Z,22.60
2018-07-25T23:32:03.073Z,22.50
2018-07-25T23:34:31.736Z,22.40
2018-07-25T23:37:00.599Z,22.40
2018-07-25T23:39:29.271Z,22.40
2018-07-25T23:41:57.952Z,22.40
2018-07-25T23:44:26.773Z,22.40
2018-07-25T23:46:58.311Z,22.40
2018-07-25T23:49:26.900Z,22.30
2018-07-25T23:51:55.542Z,22.30
2018-07-25T23:54:24.080Z,22.30
2018-07-25T23:56:52.853Z,22.30
2018-07-25T23:59:21.873Z,22.30
